createdAt,value
2017-12-11T00:01:24.619Z,93.12
2017-12-11T00:03:52.121Z,93.14
2017-12-11T00:06:19.593Z,93.19
2017-12-11T00:08:47.073Z,93.10
2017-12-11T00:11:14.593Z,93.00
2017-12-11T00:13:42.067Z,92.78
2017-12-11T00:16:16.321Z,92.61
2017-12-11T00:18:43.799Z,92.40
2017-12-11T00:21:11.321Z,92.23
2017-12-11T00:23:38.844Z,92.16
2017-12-11T00:26:06.335Z,92.17
2017-12-11T00:28:33.811Z,92.29
2017-12-11T00:31:01.455Z,92.45
2017-12-11T00:33:28.936Z,92.72
2017-12-11T00:35:56.418Z,92.89
2017-12-11T00:38:23.941Z,92.90
2017-12-11T00:40:51.427Z,93.02
2017-12-11T00:43:19.095Z,93.15
2017-12-11T00:45:46.623Z,93.28
2017-12-11T00:48:14.106Z,93.35
2017-12-11T00:50:41.586Z,93.36
2017-12-11T00:53:09.108Z,93.31
2017-12-11T00:55:36.579Z,93.22
2017-12-11T00:58:04.077Z,93.21
2017-12-11T01:00:31.590Z,93.20
2017-12-11T01:02:59.071Z,93.17
2017-12-11T01:05:26.543Z,93.20
2017-12-11T01:07:54.129Z,93.23
2017-12-11T01:10:21.595Z,93.24
2017-12-11T01:12:49.067Z,93.27
2017-12-11T01:15:16.570Z,93.30
2017-12-11T01:17:44.046Z,93.16
2017-12-11T01:20:11.637Z,93.12
2017-12-11T01:22:39.147Z,93.05
2017-12-11T01:25:06.626Z,92.80
2017-12-11T01:27:34.188Z,92.66
2017-12-11T01:30:01.688Z,92.57
2017-12-11T01:32:29.200Z,92.52
2017-12-11T01:34:56.766Z,92.39
2017-12-11T01:37:24.249Z,92.41
2017-12-11T01:39:51.727Z,92.31
2017-12-11T01:42:19.227Z,92.31
2017-12-11T01:44:46.797Z,92.26
2017-12-11T01:47:14.286Z,91.95
2017-12-11T01:49:41.817Z,91.88
2017-12-11T01:52:09.297Z,91.79
2017-12-11T01:54:36.771Z,91.59
2017-12-11T01:57:04.267Z,91.69
2017-12-11T01:59:31.740Z,91.62
2017-12-11T02:01:59.250Z,91.64
2017-12-11T02:04:26.831Z,91.67
2017-12-11T02:06:54.303Z,91.52
2017-12-11T02:09:21.811Z,91.48
2017-12-11T02:11:49.311Z,91.42
2017-12-11T02:14:16.886Z,91.43
2017-12-11T02:16:44.390Z,91.62
2017-12-11T02:19:11.899Z,91.61
2017-12-11T02:21:39.370Z,91.44
2017-12-11T02:24:07.202Z,91.27
2017-12-11T02:26:34.684Z,91.29
2017-12-11T02:29:02.245Z,91.07
2017-12-11T02:31:29.783Z,91.09
2017-12-11T02:33:57.287Z,91.10
2017-12-11T02:36:24.831Z,91.07
2017-12-11T02:38:52.356Z,91.04
2017-12-11T02:41:19.840Z,91.00
2017-12-11T02:43:47.320Z,90.83
2017-12-11T02:46:14.963Z,90.54
2017-12-11T02:48:42.645Z,90.26
2017-12-11T02:51:10.119Z,90.07
2017-12-11T02:53:37.644Z,90.26
2017-12-11T02:56:05.118Z,90.29
2017-12-11T02:58:32.594Z,90.15
2017-12-11T03:01:00.107Z,89.71
2017-12-11T03:03:27.580Z,89.48
2017-12-11T03:05:55.051Z,89.36
2017-12-11T03:08:22.564Z,89.13
2017-12-11T03:10:50.055Z,89.17
2017-12-11T03:13:17.542Z,89.07
2017-12-11T03:15:45.039Z,88.76
2017-12-11T03:18:12.513Z,88.64
2017-12-11T03:20:40.002Z,88.51
2017-12-11T03:23:07.497Z,88.46
2017-12-11T03:25:34.985Z,88.47
2017-12-11T03:28:02.509Z,88.28
2017-12-11T03:30:29.985Z,88.26
2017-12-11T03:32:57.462Z,88.30
2017-12-11T03:35:25.122Z,88.43
2017-12-11T03:37:52.612Z,88.55
2017-12-11T03:40:20.138Z,88.57
2017-12-11T03:42:47.882Z,88.39
2017-12-11T03:45:15.399Z,88.39
2017-12-11T03:47:43.095Z,88.29
2017-12-11T03:50:10.597Z,88.30
2017-12-11T03:52:38.079Z,88.13
2017-12-11T03:55:05.549Z,88.00
2017-12-11T03:57:33.062Z,87.97
2017-12-11T04:00:00.533Z,87.97
2017-12-11T04:02:28.067Z,87.95
2017-12-11T04:04:55.579Z,87.95
2017-12-11T04:07:23.049Z,87.92
2017-12-11T04:09:50.514Z,87.96
2017-12-11T04:12:18.008Z,87.29
2017-12-11T04:14:46.400Z,87.14
2017-12-11T04:17:13.931Z,86.69
2017-12-11T04:19:41.404Z,86.42
2017-12-11T04:22:08.875Z,85.99
2017-12-11T04:24:36.378Z,85.17
2017-12-11T04:27:03.855Z,84.95
2017-12-11T04:29:31.425Z,84.04
2017-12-11T04:31:58.928Z,83.74
2017-12-11T04:34:26.401Z,83.57
2017-12-11T04:36:53.865Z,83.80
2017-12-11T04:39:21.379Z,83.72
2017-12-11T04:41:48.860Z,84.06
2017-12-11T04:44:16.399Z,84.41
2017-12-11T04:46:43.909Z,84.21
2017-12-11T04:49:11.415Z,84.31
2017-12-11T04:51:38.887Z,84.67
2017-12-11T04:54:06.404Z,85.00
2017-12-11T04:56:33.885Z,85.17
2017-12-11T04:59:01.351Z,84.84
2017-12-11T05:01:28.864Z,84.92
2017-12-11T05:03:56.348Z,84.76
2017-12-11T05:06:23.820Z,84.48
2017-12-11T05:08:51.353Z,83.48
2017-12-11T05:11:18.926Z,83.39
2017-12-11T05:13:46.398Z,81.85
2017-12-11T05:16:13.924Z,81.76
2017-12-11T05:18:41.395Z,81.55
2017-12-11T05:21:08.943Z,81.11
2017-12-11T05:23:36.458Z,81.16
2017-12-11T05:26:03.924Z,80.94
2017-12-11T05:28:31.394Z,80.54
2017-12-11T05:30:58.896Z,79.20
2017-12-11T05:33:26.372Z,78.88
2017-12-11T05:35:53.847Z,78.66
2017-12-11T05:38:21.356Z,78.43
2017-12-11T05:40:48.947Z,78.08
2017-12-11T05:43:16.412Z,77.57
2017-12-11T05:45:43.910Z,77.30
2017-12-11T05:48:11.474Z,77.53
2017-12-11T05:50:38.950Z,77.49
2017-12-11T05:53:06.479Z,78.33
2017-12-11T05:55:33.963Z,78.22
2017-12-11T05:58:01.451Z,78.55
2017-12-11T06:00:28.970Z,78.80
2017-12-11T06:02:56.526Z,79.53
2017-12-11T06:05:24.095Z,80.13
2017-12-11T06:07:51.694Z,80.08
2017-12-11T06:10:19.167Z,80.62
2017-12-11T06:12:46.652Z,80.89
2017-12-11T06:15:14.159Z,80.51
2017-12-11T06:17:41.688Z,80.94
2017-12-11T06:20:09.160Z,80.74
2017-12-11T06:22:36.627Z,80.73
2017-12-11T06:25:04.138Z,80.69
2017-12-11T06:27:31.618Z,80.94
2017-12-11T06:29:59.197Z,80.76
2017-12-11T06:32:26.716Z,81.29
2017-12-11T06:34:54.297Z,81.95
2017-12-11T06:37:21.777Z,81.85
2017-12-11T06:39:49.301Z,81.60
2017-12-11T06:42:16.894Z,79.73
2017-12-11T06:44:44.383Z,79.74
2017-12-11T06:47:11.941Z,79.26
2017-12-11T06:49:39.447Z,79.45
2017-12-11T06:52:06.938Z,79.46
2017-12-11T06:54:34.455Z,79.21
2017-12-11T06:57:01.927Z,78.58
2017-12-11T06:59:29.397Z,78.63
2017-12-11T07:01:56.910Z,79.78
2017-12-11T07:04:24.395Z,79.87
2017-12-11T07:06:51.871Z,79.95
2017-12-11T07:09:19.402Z,80.32
2017-12-11T07:11:46.888Z,80.23
2017-12-11T07:14:14.381Z,81.02
2017-12-11T07:16:41.919Z,80.86
2017-12-11T07:19:09.397Z,81.16
2017-12-11T07:21:36.900Z,80.63
2017-12-11T07:24:04.429Z,81.09
2017-12-11T07:26:32.014Z,81.18
2017-12-11T07:28:59.505Z,82.25
2017-12-11T07:31:27.020Z,82.21
2017-12-11T07:33:54.500Z,81.71
2017-12-11T07:36:21.987Z,82.42
2017-12-11T07:38:49.503Z,81.96
2017-12-11T07:41:17.087Z,81.53
2017-12-11T07:43:44.559Z,80.92
2017-12-11T07:46:12.060Z,80.99
2017-12-11T07:48:39.664Z,81.99
2017-12-11T07:51:07.151Z,81.41
2017-12-11T07:53:34.635Z,81.69
2017-12-11T07:56:02.155Z,80.98
2017-12-11T07:58:29.931Z,80.96
2017-12-11T08:00:57.413Z,81.23
2017-12-11T08:03:24.944Z,79.87
2017-12-11T08:05:52.477Z,81.92
2017-12-11T08:08:19.979Z,78.01
2017-12-11T08:13:21.246Z,77.00
2017-12-11T08:15:48.751Z,77.23
2017-12-11T08:18:16.235Z,77.58
2017-12-11T08:20:43.747Z,77.91
2017-12-11T08:23:11.265Z,78.07
2017-12-11T08:25:38.744Z,78.93
2017-12-11T08:28:06.227Z,79.07
2017-12-11T08:30:33.748Z,78.80
2017-12-11T08:33:01.234Z,78.67
2017-12-11T08:35:28.720Z,78.60
2017-12-11T08:37:56.379Z,79.02
2017-12-11T08:40:23.861Z,77.81
2017-12-11T08:42:51.399Z,78.28
2017-12-11T08:45:18.926Z,77.76
2017-12-11T08:47:46.496Z,78.58
2017-12-11T08:50:14.052Z,78.04
2017-12-11T08:52:41.587Z,77.99
2017-12-11T08:55:09.075Z,78.04
2017-12-11T08:57:36.644Z,77.89
2017-12-11T09:00:04.216Z,77.47
2017-12-11T09:02:31.690Z,77.68
2017-12-11T09:04:59.171Z,77.16
2017-12-11T09:07:26.765Z,77.50
2017-12-11T09:09:54.243Z,77.21
2017-12-11T09:12:21.718Z,78.22
2017-12-11T09:14:49.337Z,77.73
2017-12-11T09:17:16.908Z,77.77
2017-12-11T09:19:44.470Z,77.24
2017-12-11T09:22:11.999Z,76.79
2017-12-11T09:24:39.478Z,77.10
2017-12-11T09:27:06.962Z,77.24
2017-12-11T09:29:34.476Z,77.04
2017-12-11T09:32:01.955Z,77.27
2017-12-11T09:34:29.435Z,76.93
2017-12-11T09:36:56.964Z,76.96
2017-12-11T09:39:24.447Z,77.75
2017-12-11T09:41:51.927Z,77.46
2017-12-11T09:44:19.459Z,77.57
2017-12-11T09:46:46.949Z,77.72
2017-12-11T09:49:14.466Z,77.64
2017-12-11T09:51:42.000Z,77.43
2017-12-11T09:54:09.671Z,77.56
2017-12-11T09:56:37.158Z,76.88
2017-12-11T09:59:04.684Z,77.42
2017-12-11T10:01:32.164Z,77.58
2017-12-11T10:03:59.703Z,77.81
2017-12-11T10:06:27.191Z,77.52
2017-12-11T10:08:54.671Z,77.50
2017-12-11T10:11:22.181Z,77.49
2017-12-11T10:13:49.662Z,78.69
2017-12-11T10:16:17.150Z,77.41
2017-12-11T10:18:44.668Z,77.68
2017-12-11T10:21:12.150Z,77.76
2017-12-11T10:23:39.667Z,78.43
2017-12-11T10:26:07.181Z,78.94
2017-12-11T10:28:34.662Z,78.87
2017-12-11T10:31:02.145Z,78.65
2017-12-11T10:33:29.657Z,79.17
2017-12-11T10:35:57.142Z,79.25
2017-12-11T10:38:24.626Z,78.90
2017-12-11T10:40:52.138Z,79.03
2017-12-11T10:43:19.618Z,79.14
2017-12-11T10:45:47.103Z,79.13
2017-12-11T10:48:14.630Z,80.28
2017-12-11T10:50:42.124Z,79.64
2017-12-11T10:53:09.607Z,79.86
2017-12-11T10:55:37.223Z,79.03
2017-12-11T10:58:04.790Z,79.17
2017-12-11T11:00:32.264Z,79.85
2017-12-11T11:02:59.784Z,79.38
2017-12-11T11:05:27.369Z,79.62
2017-12-11T11:07:54.847Z,80.02
2017-12-11T11:10:22.367Z,79.03
2017-12-11T11:12:49.857Z,79.32
2017-12-11T11:15:17.342Z,78.83
2017-12-11T11:17:44.951Z,78.70
2017-12-11T11:20:12.429Z,79.66
2017-12-11T11:22:39.908Z,79.32
2017-12-11T11:25:07.422Z,78.30
2017-12-11T11:27:34.911Z,77.90
2017-12-11T11:30:02.448Z,77.81
2017-12-11T11:32:29.967Z,77.74
2017-12-11T11:34:57.445Z,78.39
2017-12-11T11:37:24.974Z,79.73
2017-12-11T11:39:52.502Z,79.66
2017-12-11T11:42:19.979Z,79.44
2017-12-11T11:44:47.823Z,79.56
2017-12-11T11:47:15.348Z,78.38
2017-12-11T11:49:42.837Z,79.31
2017-12-11T11:52:10.323Z,78.87
2017-12-11T11:54:37.958Z,78.42
2017-12-11T11:57:05.439Z,78.33
2017-12-11T11:59:32.957Z,78.60
2017-12-11T12:02:00.466Z,78.45
2017-12-11T12:04:28.019Z,78.50
2017-12-11T12:06:55.522Z,78.31
2017-12-11T12:09:23.049Z,78.73
2017-12-11T12:11:50.527Z,78.64
2017-12-11T12:14:18.108Z,78.78
2017-12-11T12:16:45.663Z,78.23
2017-12-11T12:19:13.174Z,78.94
2017-12-11T12:21:40.686Z,78.77
2017-12-11T12:24:08.497Z,79.49
2017-12-11T12:26:36.020Z,78.65
2017-12-11T12:29:03.511Z,78.83
2017-12-11T12:31:30.990Z,79.49
2017-12-11T12:33:59.214Z,79.32
2017-12-11T12:36:26.697Z,78.51
2017-12-11T12:38:54.690Z,78.62
2017-12-11T12:41:22.302Z,79.15
2017-12-11T12:43:49.788Z,79.48
2017-12-11T12:46:17.274Z,79.21
2017-12-11T12:48:44.774Z,79.30
2017-12-11T12:51:12.259Z,80.20
2017-12-11T12:53:39.775Z,80.03
2017-12-11T12:56:07.335Z,80.23
2017-12-11T12:58:34.819Z,80.64
2017-12-11T13:01:02.449Z,81.33
2017-12-11T13:06:20.521Z,82.50
2017-12-11T13:08:47.995Z,82.60
2017-12-11T13:11:15.403Z,82.09
2017-12-11T13:13:42.831Z,82.49
2017-12-11T13:16:10.259Z,82.84
2017-12-11T13:18:37.672Z,83.31
2017-12-11T13:21:05.265Z,83.92
2017-12-11T13:23:32.692Z,82.97
2017-12-11T13:26:00.355Z,83.20
2017-12-11T13:28:27.765Z,83.12
2017-12-11T13:30:55.192Z,83.97
2017-12-11T13:33:22.751Z,84.30
2017-12-11T13:35:50.162Z,83.74
2017-12-11T13:38:17.589Z,83.46
2017-12-11T13:40:44.998Z,83.85
2017-12-11T13:43:12.408Z,84.26
2017-12-11T13:45:39.846Z,84.96
2017-12-11T13:48:07.268Z,84.54
2017-12-11T13:50:34.747Z,84.45
2017-12-11T13:53:02.215Z,84.73
2017-12-11T13:55:29.667Z,84.64
2017-12-11T13:57:57.088Z,85.15
2017-12-11T14:00:24.516Z,84.72
2017-12-11T14:02:51.943Z,84.44
2017-12-11T14:05:19.366Z,83.90
2017-12-11T14:07:46.832Z,84.21
2017-12-11T14:10:14.311Z,84.87
2017-12-11T14:12:41.723Z,84.58
2017-12-11T14:15:09.225Z,84.51
2017-12-11T14:17:36.627Z,84.44
2017-12-11T14:20:04.048Z,84.56
2017-12-11T14:22:31.614Z,84.05
2017-12-11T14:24:59.023Z,84.67
2017-12-11T14:27:31.387Z,84.38
2017-12-11T14:29:58.875Z,84.40
2017-12-11T14:32:26.295Z,84.49
2017-12-11T14:34:53.725Z,84.21
2017-12-11T14:37:21.195Z,84.83
2017-12-11T14:39:48.641Z,84.15
2017-12-11T14:42:16.071Z,83.93
2017-12-11T14:44:44.335Z,83.34
2017-12-11T14:47:11.866Z,83.70
2017-12-11T14:49:39.297Z,83.60
2017-12-11T14:52:06.703Z,83.29
2017-12-11T14:54:34.111Z,83.29
2017-12-11T14:57:01.765Z,83.53
2017-12-11T14:59:29.173Z,83.88
2017-12-11T15:01:56.746Z,84.36
2017-12-11T15:04:24.186Z,84.43
2017-12-11T15:06:51.671Z,84.64
2017-12-11T15:09:19.204Z,84.77
2017-12-11T15:11:46.613Z,84.92
2017-12-11T15:14:14.016Z,85.20
2017-12-11T15:16:41.443Z,85.40
2017-12-11T15:19:08.936Z,85.82
2017-12-11T15:21:36.355Z,86.06
2017-12-11T15:24:03.771Z,86.58
2017-12-11T15:26:31.200Z,86.69
2017-12-11T15:28:58.675Z,86.91
2017-12-11T15:31:26.082Z,87.26
2017-12-11T15:33:53.500Z,87.45
2017-12-11T15:36:20.932Z,87.58
2017-12-11T15:38:48.337Z,87.76
2017-12-11T15:41:15.747Z,87.66
2017-12-11T15:43:43.168Z,87.89
2017-12-11T15:46:10.648Z,88.20
2017-12-11T15:48:38.068Z,88.13
2017-12-11T15:51:05.496Z,88.58
2017-12-11T15:53:32.907Z,88.41
2017-12-11T15:56:00.325Z,88.67
2017-12-11T15:58:27.740Z,89.04
2017-12-11T16:00:55.212Z,89.02
2017-12-11T16:03:22.757Z,89.06
2017-12-11T16:05:50.167Z,89.39
2017-12-11T16:08:17.599Z,89.87
2017-12-11T16:10:45.016Z,89.99
2017-12-11T16:13:12.472Z,90.13
2017-12-11T16:15:39.884Z,90.24
2017-12-11T16:18:07.396Z,90.61
2017-12-11T16:20:34.852Z,90.68
2017-12-11T16:23:02.268Z,90.53
2017-12-11T16:25:29.963Z,90.60
2017-12-11T16:27:57.365Z,90.58
2017-12-11T16:30:24.767Z,90.96
2017-12-11T16:32:52.198Z,91.27
2017-12-11T16:35:19.710Z,91.71
2017-12-11T16:37:47.120Z,91.91
2017-12-11T16:40:14.710Z,92.08
2017-12-11T16:42:42.578Z,92.40
2017-12-11T16:45:10.446Z,92.57
2017-12-11T16:47:37.908Z,92.77
2017-12-11T16:50:05.557Z,92.85
2017-12-11T16:52:33.127Z,92.65
2017-12-11T16:55:00.674Z,92.75
2017-12-11T16:57:28.145Z,92.86
2017-12-11T16:59:55.601Z,93.07
2017-12-11T17:02:23.013Z,93.18
2017-12-11T17:04:50.605Z,93.27
2017-12-11T17:07:18.047Z,93.44
2017-12-11T17:09:45.519Z,93.32
2017-12-11T17:12:12.921Z,93.34
2017-12-11T17:14:40.343Z,93.24
2017-12-11T17:17:07.890Z,93.22
2017-12-11T17:19:35.295Z,93.23
2017-12-11T17:22:02.920Z,93.29
2017-12-11T17:24:30.324Z,93.35
2017-12-11T17:26:57.831Z,93.41
2017-12-11T17:29:25.278Z,93.30
2017-12-11T17:31:52.734Z,93.39
2017-12-11T17:34:20.135Z,93.48
2017-12-11T17:36:47.760Z,93.41
2017-12-11T17:39:16.008Z,93.35
2017-12-11T17:41:43.415Z,93.40
2017-12-11T17:44:10.955Z,93.42
2017-12-11T17:46:38.366Z,93.46
2017-12-11T17:49:05.777Z,93.56
2017-12-11T17:51:33.229Z,93.45
2017-12-11T17:54:00.770Z,93.58
2017-12-11T17:56:28.207Z,93.41
2017-12-11T17:58:55.914Z,93.47
2017-12-11T18:01:23.329Z,93.53
2017-12-11T18:03:50.767Z,93.49
2017-12-11T18:06:18.321Z,93.59
2017-12-11T18:08:45.799Z,93.62
2017-12-11T18:13:46.984Z,93.94
2017-12-11T18:16:14.415Z,93.94
2017-12-11T18:18:42.103Z,94.00
2017-12-11T18:21:09.568Z,94.10
2017-12-11T18:23:37.113Z,94.20
2017-12-11T18:26:04.580Z,94.26
2017-12-11T18:28:32.261Z,94.32
2017-12-11T18:30:59.805Z,94.40
2017-12-11T18:33:27.245Z,94.46
2017-12-11T18:35:54.643Z,94.49
2017-12-11T18:40:55.914Z,94.63
2017-12-11T18:43:23.342Z,94.64
2017-12-11T18:45:50.753Z,94.67
2017-12-11T18:48:18.157Z,94.68
2017-12-11T18:50:45.588Z,94.72
2017-12-11T18:53:13.055Z,94.75
2017-12-11T18:55:40.522Z,94.74
2017-12-11T18:58:08.061Z,94.73
2017-12-11T19:00:35.518Z,94.76
2017-12-11T19:03:02.920Z,94.72
2017-12-11T19:05:30.427Z,94.66
2017-12-11T19:07:57.835Z,94.64
2017-12-11T19:10:25.251Z,94.65
2017-12-11T19:12:52.700Z,94.66
2017-12-11T19:15:20.369Z,94.69
2017-12-11T19:17:47.799Z,94.63
2017-12-11T19:20:15.276Z,94.52
2017-12-11T19:22:42.735Z,94.54
2017-12-11T19:25:10.137Z,94.47
2017-12-11T19:27:37.577Z,94.44
2017-12-11T19:30:05.320Z,94.28
2017-12-11T19:32:32.736Z,94.14
2017-12-11T19:35:00.172Z,94.11
2017-12-11T19:37:27.578Z,94.19
2017-12-11T19:39:55.047Z,94.20
2017-12-11T19:42:22.471Z,94.12
2017-12-11T19:44:49.955Z,94.11
2017-12-11T19:47:17.363Z,94.11
2017-12-11T19:49:44.806Z,94.05
2017-12-11T19:52:12.208Z,93.94
2017-12-11T19:54:39.690Z,93.60
2017-12-11T19:57:07.112Z,93.57
2017-12-11T19:59:34.530Z,93.59
2017-12-11T20:02:02.041Z,93.62
2017-12-11T20:04:29.455Z,93.54
2017-12-11T20:06:56.914Z,93.42
2017-12-11T20:09:24.323Z,93.45
2017-12-11T20:11:51.779Z,93.51
2017-12-11T20:14:19.600Z,93.51
2017-12-11T20:16:47.125Z,93.29
2017-12-11T20:19:14.725Z,93.00
2017-12-11T20:21:42.143Z,92.86
2017-12-11T20:24:09.552Z,92.99
2017-12-11T20:26:37.044Z,92.73
2017-12-11T20:29:04.480Z,92.11
2017-12-11T20:31:31.885Z,92.00
2017-12-11T20:33:59.292Z,91.96
2017-12-11T20:36:26.762Z,91.74
2017-12-11T20:38:54.219Z,91.75
2017-12-11T20:41:21.631Z,91.73
2017-12-11T20:43:49.047Z,91.71
2017-12-11T20:46:16.457Z,91.63
2017-12-11T20:48:43.870Z,91.82
2017-12-11T20:51:11.299Z,91.89
2017-12-11T20:53:38.715Z,92.02
2017-12-11T20:56:06.120Z,91.94
2017-12-11T20:58:33.565Z,92.02
2017-12-11T21:01:01.011Z,92.05
2017-12-11T21:03:28.412Z,91.97
2017-12-11T21:05:55.850Z,91.94
2017-12-11T21:08:23.295Z,92.15
2017-12-11T21:10:50.699Z,92.25
2017-12-11T21:13:18.215Z,92.31
2017-12-11T21:15:45.645Z,92.40
2017-12-11T21:18:13.047Z,92.32
2017-12-11T21:20:40.489Z,92.37
2017-12-11T21:23:07.895Z,92.16
2017-12-11T21:25:35.343Z,92.26
2017-12-11T21:28:02.831Z,92.15
2017-12-11T21:30:30.239Z,92.29
2017-12-11T21:32:57.659Z,92.37
2017-12-11T21:35:25.097Z,92.53
2017-12-11T21:37:52.589Z,92.62
2017-12-11T21:40:19.980Z,92.76
2017-12-11T21:42:47.406Z,92.80
2017-12-11T21:45:14.813Z,92.66
2017-12-11T21:47:42.300Z,92.61
2017-12-11T21:50:09.753Z,92.66
2017-12-11T21:52:37.167Z,92.86
2017-12-11T21:55:04.597Z,92.68
2017-12-11T21:57:32.012Z,92.72
2017-12-11T21:59:59.432Z,92.65
2017-12-11T22:02:26.868Z,92.63
2017-12-11T22:04:54.271Z,92.59
2017-12-11T22:07:21.748Z,92.76
2017-12-11T22:09:49.199Z,92.75
2017-12-11T22:12:16.636Z,92.66
2017-12-11T22:14:44.053Z,92.79
2017-12-11T22:17:11.483Z,92.95
2017-12-11T22:19:38.891Z,92.97
2017-12-11T22:22:06.391Z,92.89
2017-12-11T22:24:33.939Z,92.89
2017-12-11T22:27:01.389Z,93.06
2017-12-11T22:29:28.846Z,93.81
2017-12-11T22:31:56.232Z,92.94
2017-12-11T22:34:23.676Z,92.74
2017-12-11T22:36:51.115Z,92.68
2017-12-11T22:39:18.584Z,92.81
2017-12-11T22:41:46.003Z,92.82
2017-12-11T22:44:13.499Z,92.96
2017-12-11T22:46:40.923Z,93.04
2017-12-11T22:49:08.327Z,92.91
2017-12-11T22:51:35.739Z,92.98
2017-12-11T22:54:03.166Z,93.03
2017-12-11T22:56:30.681Z,92.91
2017-12-11T22:58:58.137Z,92.89
2017-12-11T23:01:25.543Z,92.91
2017-12-11T23:03:52.964Z,92.99
2017-12-11T23:06:20.406Z,92.88
2017-12-11T23:08:47.824Z,92.75
2017-12-11T23:11:15.309Z,92.65
2017-12-11T23:13:42.744Z,92.57
2017-12-11T23:16:10.151Z,92.54
2017-12-11T23:18:37.559Z,92.47
2017-12-11T23:21:05.007Z,92.54
2017-12-11T23:23:32.415Z,92.64
2017-12-11T23:25:59.856Z,92.84
2017-12-11T23:28:27.295Z,92.89
2017-12-11T23:30:54.767Z,92.80
2017-12-11T23:33:22.215Z,92.60
2017-12-11T23:35:49.639Z,92.65
2017-12-11T23:38:17.040Z,92.62
2017-12-11T23:40:44.500Z,92.69
2017-12-11T23:43:11.942Z,92.72
2017-12-11T23:45:39.353Z,92.76
2017-12-11T23:48:06.763Z,92.84
2017-12-11T23:50:34.208Z,92.71
2017-12-11T23:53:01.608Z,92.73
2017-12-11T23:55:29.029Z,92.70
2017-12-11T23:57:56.472Z,92.69
